createdAt,value
2023-12-09T00:00:46.707Z,1.00
2023-12-09T00:03:13.540Z,0.90
2023-12-09T00:05:40.355Z,0.90
2023-12-09T00:08:07.165Z,0.90
2023-12-09T00:10:34.424Z,0.90
2023-12-09T00:13:01.826Z,1.00
2023-12-09T00:15:28.604Z,1.00
2023-12-09T00:17:55.469Z,1.00
2023-12-09T00:20:22.269Z,1.00
2023-12-09T00:22:49.056Z,1.00
2023-12-09T00:25:15.914Z,0.90
2023-12-09T00:27:42.720Z,0.90
2023-12-09T00:30:09.665Z,0.90
2023-12-09T00:32:36.608Z,1.00
2023-12-09T00:35:03.767Z,1.00
2023-12-09T00:37:30.667Z,0.80
2023-12-09T00:39:57.414Z,0.80
2023-12-09T00:42:25.163Z,0.70
2023-12-09T00:44:52.469Z,0.70
2023-12-09T00:47:19.268Z,0.60
2023-12-09T00:49:46.365Z,0.60
2023-12-09T00:52:13.548Z,0.40
2023-12-09T00:54:40.383Z,0.30
2023-12-09T00:57:07.224Z,0.40
2023-12-09T00:59:34.278Z,0.60
2023-12-09T01:02:01.007Z,0.80
2023-12-09T01:04:28.003Z,0.80
2023-12-09T01:06:55.236Z,0.80
2023-12-09T01:09:22.114Z,0.60
2023-12-09T01:11:48.946Z,0.70
2023-12-09T01:14:16.250Z,0.80
2023-12-09T01:16:43.278Z,0.80
2023-12-09T01:19:10.132Z,0.70
2023-12-09T01:21:37.046Z,0.60
2023-12-09T01:24:05.868Z,0.60
2023-12-09T01:26:33.319Z,0.60
2023-12-09T01:29:01.394Z,0.60
2023-12-09T01:31:28.319Z,0.60
2023-12-09T01:33:55.221Z,0.60
2023-12-09T01:36:22.072Z,0.60
2023-12-09T01:38:48.938Z,0.70
2023-12-09T01:41:15.884Z,0.70
2023-12-09T01:43:46.703Z,0.70
2023-12-09T01:46:13.893Z,0.60
2023-12-09T01:48:41.309Z,0.60
2023-12-09T01:51:08.827Z,0.50
2023-12-09T01:53:37.473Z,0.50
2023-12-09T01:56:10.783Z,0.40
2023-12-09T01:58:38.584Z,0.40
2023-12-09T02:01:06.549Z,0.40
2023-12-09T02:03:34.905Z,0.40
2023-12-09T02:06:01.953Z,0.30
2023-12-09T02:08:28.744Z,0.30
2023-12-09T02:11:22.495Z,0.40
2023-12-09T02:13:58.842Z,0.30
2023-12-09T02:16:38.210Z,0.30
2023-12-09T02:19:08.540Z,0.40
2023-12-09T02:21:57.325Z,0.30
2023-12-09T02:24:24.357Z,0.30
2023-12-09T02:26:52.796Z,0.40
2023-12-09T02:29:21.309Z,0.30
2023-12-09T02:31:52.895Z,0.30
2023-12-09T02:34:23.124Z,0.30
2023-12-09T02:36:52.232Z,0.30
2023-12-09T02:39:19.647Z,0.30
2023-12-09T02:41:48.291Z,0.30
2023-12-09T02:44:15.341Z,0.30
2023-12-09T02:46:42.094Z,0.30
2023-12-09T02:49:08.980Z,0.30
2023-12-09T02:51:35.807Z,0.30
2023-12-09T02:54:02.573Z,0.40
2023-12-09T02:56:29.410Z,0.30
2023-12-09T02:58:56.193Z,0.30
2023-12-09T03:01:22.936Z,0.40
2023-12-09T03:03:49.776Z,0.50
2023-12-09T03:06:16.645Z,0.40
2023-12-09T03:08:43.427Z,0.40
2023-12-09T03:11:10.220Z,0.40
2023-12-09T03:13:36.988Z,0.30
2023-12-09T03:16:04.214Z,0.30
2023-12-09T03:18:31.340Z,0.30
2023-12-09T03:20:58.180Z,0.30
2023-12-09T03:23:24.906Z,0.30
2023-12-09T03:25:51.750Z,0.30
2023-12-09T03:28:18.540Z,0.20
2023-12-09T03:30:45.343Z,0.20
2023-12-09T03:33:12.256Z,0.20
2023-12-09T03:35:39.501Z,0.20
2023-12-09T03:38:06.434Z,0.20
2023-12-09T03:40:33.456Z,0.10
2023-12-09T03:43:00.261Z,0.10
2023-12-09T03:45:27.101Z,0.10
2023-12-09T03:47:53.996Z,0.10
2023-12-09T03:50:20.883Z,0.10
2023-12-09T03:52:47.692Z,0.10
2023-12-09T03:55:16.536Z,0.10
2023-12-09T03:57:43.605Z,0.20
2023-12-09T04:00:10.947Z,0.10
2023-12-09T04:02:37.817Z,0.20
2023-12-09T04:05:07.211Z,0.30
2023-12-09T04:07:34.764Z,0.40
2023-12-09T04:10:01.542Z,0.60
2023-12-09T04:12:28.649Z,0.70
2023-12-09T04:14:55.621Z,0.80
2023-12-09T04:17:22.959Z,0.80
2023-12-09T04:19:50.016Z,0.90
2023-12-09T04:22:16.943Z,1.00
2023-12-09T04:24:44.170Z,1.00
2023-12-09T04:27:11.533Z,1.00
2023-12-09T04:29:38.298Z,1.10
2023-12-09T04:32:05.630Z,1.10
2023-12-09T04:34:32.425Z,1.20
2023-12-09T04:36:59.531Z,1.20
2023-12-09T04:39:26.331Z,1.30
2023-12-09T04:41:53.134Z,1.30
2023-12-09T04:44:19.983Z,1.30
2023-12-09T04:46:47.589Z,1.30
2023-12-09T04:49:14.571Z,1.40
2023-12-09T04:51:41.371Z,1.40
2023-12-09T04:54:08.802Z,1.40
2023-12-09T04:56:35.559Z,1.40
2023-12-09T04:59:02.314Z,1.40
2023-12-09T05:01:29.551Z,1.40
2023-12-09T05:03:56.351Z,1.40
2023-12-09T05:06:23.278Z,1.50
2023-12-09T05:08:50.041Z,1.50
2023-12-09T05:11:16.809Z,1.50
2023-12-09T05:13:43.511Z,1.50
2023-12-09T05:16:10.330Z,1.60
2023-12-09T05:18:37.797Z,1.60
2023-12-09T05:21:07.781Z,1.60
2023-12-09T05:23:35.872Z,1.60
2023-12-09T05:26:02.692Z,1.70
2023-12-09T05:28:31.237Z,1.70
2023-12-09T05:30:58.673Z,1.70
2023-12-09T05:33:25.550Z,1.70
2023-12-09T05:35:52.449Z,1.70
2023-12-09T05:38:19.216Z,1.70
2023-12-09T05:40:45.986Z,1.70
2023-12-09T05:43:12.756Z,1.70
2023-12-09T05:45:39.761Z,1.80
2023-12-09T05:48:06.909Z,1.80
2023-12-09T05:50:33.767Z,1.80
2023-12-09T05:53:02.539Z,1.80
2023-12-09T05:55:29.521Z,1.80
2023-12-09T05:57:56.304Z,1.80
2023-12-09T06:00:23.406Z,1.80
2023-12-09T06:02:50.189Z,1.80
2023-12-09T06:05:17.059Z,1.80
2023-12-09T06:07:44.046Z,1.80
2023-12-09T06:10:11.085Z,1.80
2023-12-09T06:12:41.866Z,1.80
2023-12-09T06:15:09.055Z,1.80
2023-12-09T06:17:35.896Z,1.80
2023-12-09T06:20:02.822Z,1.80
2023-12-09T06:22:30.660Z,1.90
2023-12-09T06:24:57.564Z,1.90
2023-12-09T06:27:26.127Z,1.90
2023-12-09T06:29:53.279Z,1.90
2023-12-09T06:32:20.070Z,1.90
2023-12-09T06:34:46.944Z,1.90
2023-12-09T06:37:13.749Z,1.90
2023-12-09T06:39:40.574Z,1.90
2023-12-09T06:42:07.495Z,2.00
2023-12-09T06:44:34.308Z,2.00
2023-12-09T06:47:01.103Z,2.00
2023-12-09T06:49:27.932Z,2.00
2023-12-09T06:51:55.449Z,2.00
2023-12-09T06:54:22.603Z,2.00
2023-12-09T06:56:49.452Z,2.00
2023-12-09T06:59:16.277Z,2.00
2023-12-09T07:01:44.415Z,2.00
2023-12-09T07:04:13.530Z,2.00
2023-12-09T07:06:40.771Z,2.00
2023-12-09T07:09:08.772Z,2.00
2023-12-09T07:11:35.575Z,2.00
2023-12-09T07:14:02.421Z,2.00
2023-12-09T07:16:29.287Z,2.00
2023-12-09T07:19:00.828Z,2.10
2023-12-09T07:21:30.864Z,2.10
2023-12-09T07:23:58.161Z,2.10
2023-12-09T07:26:25.092Z,2.10
2023-12-09T07:28:51.878Z,2.10
2023-12-09T07:31:18.744Z,2.20
2023-12-09T07:33:45.814Z,2.40
2023-12-09T07:38:40.106Z,2.60
2023-12-09T07:41:06.864Z,2.70
2023-12-09T07:43:33.641Z,2.60
2023-12-09T07:46:00.542Z,2.60
2023-12-09T07:48:28.634Z,2.50
2023-12-09T07:50:55.677Z,2.50
2023-12-09T07:53:22.492Z,2.50
2023-12-09T07:55:49.547Z,2.50
2023-12-09T07:58:16.663Z,2.50
2023-12-09T08:00:43.699Z,2.50
2023-12-09T08:03:10.587Z,2.60
2023-12-09T08:05:37.586Z,2.60
2023-12-09T08:08:05.132Z,2.60
2023-12-09T08:10:31.954Z,2.70
2023-12-09T08:12:59.638Z,2.70
2023-12-09T08:15:26.679Z,2.70
2023-12-09T08:17:53.496Z,2.80
2023-12-09T08:20:20.331Z,2.80
2023-12-09T08:22:47.676Z,2.80
2023-12-09T08:25:14.589Z,2.80
2023-12-09T08:27:41.872Z,2.80
2023-12-09T08:30:11.710Z,2.80
2023-12-09T08:32:42.830Z,2.80
2023-12-09T08:35:12.160Z,2.80
2023-12-09T08:37:40.232Z,2.80
2023-12-09T08:40:15.155Z,2.90
2023-12-09T08:42:43.781Z,2.90
2023-12-09T08:45:13.127Z,2.90
2023-12-09T08:47:44.006Z,3.00
2023-12-09T08:50:22.070Z,3.00
2023-12-09T08:52:53.099Z,3.10
2023-12-09T08:55:20.102Z,3.10
2023-12-09T08:57:47.071Z,3.10
2023-12-09T09:00:17.288Z,3.10
2023-12-09T09:02:44.149Z,3.10
2023-12-09T09:05:11.471Z,3.10
2023-12-09T09:07:41.392Z,3.10
2023-12-09T09:10:09.285Z,3.10
2023-12-09T09:12:36.138Z,3.20
2023-12-09T09:15:06.900Z,3.20
2023-12-09T09:17:36.560Z,3.20
2023-12-09T09:20:06.867Z,3.20
2023-12-09T09:22:34.646Z,3.20
2023-12-09T09:25:02.238Z,3.20
2023-12-09T09:27:29.549Z,3.20
2023-12-09T09:29:56.866Z,3.30
2023-12-09T09:32:24.157Z,3.30
2023-12-09T09:34:51.131Z,3.30
2023-12-09T09:37:17.938Z,3.30
2023-12-09T09:39:44.897Z,3.30
2023-12-09T09:42:30.729Z,3.30
2023-12-09T09:45:27.530Z,3.30
2023-12-09T09:47:57.804Z,3.30
2023-12-09T09:50:26.861Z,3.30
2023-12-09T09:52:55.777Z,3.30
2023-12-09T09:55:24.371Z,3.20
2023-12-09T09:57:51.846Z,3.20
2023-12-09T10:00:21.012Z,3.20
2023-12-09T10:02:53.001Z,3.30
2023-12-09T10:05:21.644Z,3.20
2023-12-09T10:07:48.935Z,3.20
2023-12-09T10:10:17.782Z,3.20
2023-12-09T10:12:46.024Z,3.20
2023-12-09T10:15:13.132Z,3.30
2023-12-09T10:17:40.434Z,3.30
2023-12-09T10:20:09.730Z,3.30
2023-12-09T10:22:36.735Z,3.30
2023-12-09T10:25:03.748Z,3.30
2023-12-09T10:27:31.051Z,3.30
2023-12-09T10:29:58.224Z,3.30
2023-12-09T10:32:27.501Z,3.30
2023-12-09T10:34:54.937Z,3.30
2023-12-09T10:37:23.210Z,3.30
2023-12-09T10:39:52.146Z,3.30
2023-12-09T10:42:19.233Z,3.30
2023-12-09T10:44:47.093Z,3.20
2023-12-09T10:47:13.963Z,3.20
2023-12-09T10:49:41.009Z,3.20
2023-12-09T10:52:07.943Z,3.10
2023-12-09T10:54:34.937Z,3.10
2023-12-09T10:57:02.301Z,3.10
2023-12-09T10:59:31.898Z,3.10
2023-12-09T11:02:01.392Z,3.10
2023-12-09T11:04:29.570Z,3.10
2023-12-09T11:07:00.544Z,3.10
2023-12-09T11:09:28.010Z,3.10
2023-12-09T11:11:55.297Z,3.10
2023-12-09T11:14:28.467Z,3.10
2023-12-09T11:16:58.386Z,3.10
2023-12-09T11:19:26.215Z,3.10
2023-12-09T11:21:53.583Z,3.10
2023-12-09T11:24:21.397Z,3.10
2023-12-09T11:26:48.866Z,3.10
2023-12-09T11:29:21.130Z,3.00
2023-12-09T11:31:50.004Z,3.00
2023-12-09T11:34:22.813Z,3.00
2023-12-09T11:36:53.532Z,3.00
2023-12-09T11:39:23.169Z,3.00
2023-12-09T11:41:51.561Z,3.10
2023-12-09T11:44:19.000Z,3.10
2023-12-09T11:46:47.834Z,3.10
2023-12-09T11:49:15.465Z,3.10
2023-12-09T11:51:42.399Z,3.20
2023-12-09T11:54:11.120Z,3.20
2023-12-09T11:56:39.690Z,3.30
2023-12-09T11:59:06.970Z,3.30
2023-12-09T12:01:35.211Z,3.30
2023-12-09T12:04:02.412Z,3.50
2023-12-09T12:06:29.573Z,3.60
2023-12-09T12:08:56.801Z,3.60
2023-12-09T12:11:25.653Z,3.60
2023-12-09T12:13:53.535Z,3.70
2023-12-09T12:16:20.918Z,3.70
2023-12-09T12:18:49.415Z,3.70
2023-12-09T12:21:16.868Z,3.60
2023-12-09T12:23:44.293Z,3.50
2023-12-09T12:26:12.805Z,3.50
2023-12-09T12:28:39.812Z,3.50
2023-12-09T12:31:07.902Z,3.40
2023-12-09T12:33:35.697Z,3.40
2023-12-09T12:36:02.944Z,3.40
2023-12-09T12:38:29.894Z,3.40
2023-12-09T12:40:58.552Z,3.40
2023-12-09T12:43:31.713Z,3.40
2023-12-09T12:46:00.021Z,3.40
2023-12-09T12:48:27.359Z,3.40
2023-12-09T12:50:54.930Z,3.50
2023-12-09T12:53:26.666Z,3.50
2023-12-09T12:55:55.898Z,3.60
2023-12-09T12:58:23.729Z,3.60
2023-12-09T13:00:52.936Z,3.50
2023-12-09T13:03:19.902Z,3.60
2023-12-09T13:05:46.921Z,3.70
2023-12-09T13:08:13.745Z,3.70
2023-12-09T13:10:40.949Z,3.70
2023-12-09T13:13:07.823Z,3.70
2023-12-09T13:15:34.857Z,3.70
2023-12-09T13:18:02.592Z,3.60
2023-12-09T13:20:30.338Z,3.60
2023-12-09T13:22:57.743Z,3.60
2023-12-09T13:25:24.602Z,3.50
2023-12-09T13:27:51.692Z,3.50
2023-12-09T13:30:18.690Z,3.50
2023-12-09T13:32:46.612Z,3.50
2023-12-09T13:35:15.706Z,3.50
2023-12-09T13:37:44.049Z,3.40
2023-12-09T13:40:12.941Z,3.50
2023-12-09T13:42:40.205Z,3.50
2023-12-09T13:45:07.723Z,3.40
2023-12-09T13:47:34.798Z,3.40
2023-12-09T13:50:01.766Z,3.40
2023-12-09T13:52:31.930Z,3.40
2023-12-09T13:55:00.019Z,3.40
2023-12-09T13:57:26.873Z,3.40
2023-12-09T13:59:53.866Z,3.40
2023-12-09T14:02:20.984Z,3.40
2023-12-09T14:04:48.140Z,3.40
2023-12-09T14:07:15.510Z,3.40
2023-12-09T14:09:42.626Z,3.40
2023-12-09T14:12:09.795Z,3.40
2023-12-09T14:14:37.447Z,3.40
2023-12-09T14:17:04.804Z,3.40
2023-12-09T14:19:31.646Z,3.40
2023-12-09T14:21:58.544Z,3.40
2023-12-09T14:24:25.339Z,3.40
2023-12-09T14:26:52.326Z,3.30
2023-12-09T14:29:19.131Z,3.30
2023-12-09T14:31:45.950Z,3.30
2023-12-09T14:34:13.008Z,3.30
2023-12-09T14:36:40.077Z,3.30
2023-12-09T14:39:10.620Z,3.30
2023-12-09T14:41:37.974Z,3.30
2023-12-09T14:44:08.649Z,3.30
2023-12-09T14:46:36.352Z,3.30
2023-12-09T14:49:04.312Z,3.30
2023-12-09T14:51:40.413Z,3.30
2023-12-09T14:54:16.322Z,3.30
2023-12-09T14:56:45.285Z,3.30
2023-12-09T14:59:12.860Z,3.30
2023-12-09T15:01:39.845Z,3.30
2023-12-09T15:04:06.804Z,3.30
2023-12-09T15:06:34.359Z,3.30
2023-12-09T15:09:01.988Z,3.20
2023-12-09T15:11:28.950Z,3.30
2023-12-09T15:13:55.728Z,3.20
2023-12-09T15:16:23.180Z,3.20
2023-12-09T15:18:50.155Z,3.20
2023-12-09T15:21:17.144Z,3.20
2023-12-09T15:23:44.026Z,3.20
2023-12-09T15:26:12.085Z,3.20
2023-12-09T15:28:39.184Z,3.10
2023-12-09T15:31:08.639Z,3.10
2023-12-09T15:33:35.726Z,3.20
2023-12-09T15:36:03.196Z,3.20
2023-12-09T15:38:30.118Z,3.20
2023-12-09T15:40:56.889Z,3.20
2023-12-09T15:43:23.634Z,3.10
2023-12-09T15:45:51.266Z,3.20
2023-12-09T15:48:19.093Z,3.20
2023-12-09T15:50:45.944Z,3.20
2023-12-09T15:53:13.496Z,3.30
2023-12-09T15:55:40.305Z,3.30
2023-12-09T15:58:07.318Z,3.30
2023-12-09T16:00:38.058Z,3.30
2023-12-09T16:03:05.247Z,3.30
2023-12-09T16:05:32.142Z,3.30
2023-12-09T16:08:00.375Z,3.30
2023-12-09T16:10:28.949Z,3.40
2023-12-09T16:12:55.937Z,3.30
2023-12-09T16:15:22.731Z,3.30
2023-12-09T16:17:50.129Z,3.30
2023-12-09T16:20:18.184Z,3.30
2023-12-09T16:22:46.332Z,3.40
2023-12-09T16:25:13.957Z,3.40
2023-12-09T16:27:41.330Z,3.40
2023-12-09T16:30:08.529Z,3.40
2023-12-09T16:32:35.427Z,3.40
2023-12-09T16:35:03.074Z,3.50
2023-12-09T16:37:29.996Z,3.50
2023-12-09T16:39:57.460Z,3.50
2023-12-09T16:42:24.272Z,3.40
2023-12-09T16:44:51.089Z,3.40
2023-12-09T16:47:18.099Z,3.40
2023-12-09T16:49:45.088Z,3.40
2023-12-09T16:52:12.353Z,3.30
2023-12-09T16:54:40.003Z,3.30
2023-12-09T16:57:07.527Z,3.30
2023-12-09T16:59:34.357Z,3.30
2023-12-09T17:02:01.142Z,3.30
2023-12-09T17:04:28.079Z,3.30
2023-12-09T17:06:55.382Z,3.30
2023-12-09T17:09:22.458Z,3.30
2023-12-09T17:11:52.721Z,3.20
2023-12-09T17:14:20.103Z,3.30
2023-12-09T17:16:47.020Z,3.20
2023-12-09T17:19:14.099Z,3.20
2023-12-09T17:21:41.128Z,3.20
2023-12-09T17:24:08.122Z,3.30
2023-12-09T17:26:36.133Z,3.30
2023-12-09T17:29:03.558Z,3.30
2023-12-09T17:31:30.945Z,3.30
2023-12-09T17:33:57.940Z,3.30
2023-12-09T17:36:27.195Z,3.30
2023-12-09T17:38:54.855Z,3.30
2023-12-09T17:41:22.171Z,3.30
2023-12-09T17:43:52.746Z,3.30
2023-12-09T17:46:20.622Z,3.30
2023-12-09T17:48:49.015Z,3.30
2023-12-09T17:51:15.966Z,3.30
2023-12-09T17:53:42.762Z,3.30
2023-12-09T17:56:09.929Z,3.30
2023-12-09T17:58:38.069Z,3.30
2023-12-09T18:01:05.666Z,3.30
2023-12-09T18:03:32.980Z,3.30
2023-12-09T18:05:59.894Z,3.30
2023-12-09T18:08:26.689Z,3.30
2023-12-09T18:10:53.481Z,3.30
2023-12-09T18:13:20.331Z,3.30
2023-12-09T18:15:47.795Z,3.30
2023-12-09T18:18:14.732Z,3.30
2023-12-09T18:20:41.593Z,3.40
2023-12-09T18:23:08.508Z,3.40
2023-12-09T18:25:35.407Z,3.40
2023-12-09T18:28:03.564Z,3.40
2023-12-09T18:30:31.058Z,3.40
2023-12-09T18:32:58.198Z,3.40
2023-12-09T18:35:25.136Z,3.40
2023-12-09T18:37:52.651Z,3.40
2023-12-09T18:40:21.717Z,3.40
2023-12-09T18:42:51.841Z,3.50
2023-12-09T18:45:19.579Z,3.50
2023-12-09T18:47:47.327Z,3.50
2023-12-09T18:50:14.707Z,3.50
2023-12-09T18:52:41.713Z,3.50
2023-12-09T18:55:09.675Z,3.50
2023-12-09T18:57:37.445Z,3.50
2023-12-09T19:00:05.661Z,3.60
2023-12-09T19:02:33.308Z,3.50
2023-12-09T19:05:00.628Z,3.60
2023-12-09T19:07:28.467Z,3.60
2023-12-09T19:09:55.406Z,3.60
2023-12-09T19:12:22.495Z,3.60
2023-12-09T19:14:50.168Z,3.70
2023-12-09T19:17:17.410Z,3.70
2023-12-09T19:19:44.410Z,3.70
2023-12-09T19:22:11.403Z,3.70
2023-12-09T19:24:38.376Z,3.70
2023-12-09T19:27:05.689Z,3.80
2023-12-09T19:29:32.611Z,3.70
2023-12-09T19:31:59.686Z,3.70
2023-12-09T19:34:27.241Z,3.70
2023-12-09T19:36:54.080Z,3.70
2023-12-09T19:39:21.331Z,3.70
2023-12-09T19:41:48.822Z,3.70
2023-12-09T19:44:15.637Z,3.70
2023-12-09T19:46:42.928Z,3.70
2023-12-09T19:49:09.902Z,3.70
2023-12-09T19:51:36.924Z,3.80
2023-12-09T19:54:03.942Z,3.80
2023-12-09T19:56:31.002Z,3.80
2023-12-09T19:58:57.872Z,3.80
2023-12-09T20:01:25.051Z,3.80
2023-12-09T20:03:52.126Z,3.80
2023-12-09T20:06:19.236Z,3.80
2023-12-09T20:08:46.443Z,3.80
2023-12-09T20:11:13.733Z,3.80
2023-12-09T20:13:41.094Z,3.80
2023-12-09T20:16:08.721Z,3.80
2023-12-09T20:18:35.855Z,3.80
2023-12-09T20:21:03.429Z,3.80
2023-12-09T20:23:30.255Z,3.80
2023-12-09T20:25:57.061Z,3.80
2023-12-09T20:28:24.005Z,3.80
2023-12-09T20:30:51.253Z,3.80
2023-12-09T20:33:18.402Z,3.90
2023-12-09T20:35:45.276Z,4.00
2023-12-09T20:38:14.996Z,4.20
2023-12-09T20:40:41.795Z,4.30
2023-12-09T20:43:09.104Z,4.50
2023-12-09T20:45:37.928Z,4.50
2023-12-09T20:48:05.596Z,4.80
2023-12-09T20:50:32.974Z,5.20
2023-12-09T20:52:59.798Z,5.40
2023-12-09T20:55:27.196Z,5.40
2023-12-09T20:57:54.448Z,5.50
2023-12-09T21:00:21.484Z,5.50
2023-12-09T21:02:48.252Z,5.50
2023-12-09T21:05:15.202Z,5.50
2023-12-09T21:07:42.769Z,5.50
2023-12-09T21:10:09.746Z,5.50
2023-12-09T21:12:36.552Z,5.50
2023-12-09T21:15:03.561Z,5.50
2023-12-09T21:17:30.545Z,5.50
2023-12-09T21:19:57.330Z,5.50
2023-12-09T21:22:25.587Z,5.40
2023-12-09T21:24:52.623Z,5.40
2023-12-09T21:27:19.508Z,5.40
2023-12-09T21:29:46.283Z,5.40
2023-12-09T21:32:13.110Z,5.40
2023-12-09T21:34:40.095Z,5.40
2023-12-09T21:37:07.017Z,5.30
2023-12-09T21:39:33.977Z,5.40
2023-12-09T21:42:00.840Z,5.40
2023-12-09T21:44:28.404Z,5.40
2023-12-09T21:46:55.191Z,5.40
2023-12-09T21:49:22.051Z,5.40
2023-12-09T21:51:48.990Z,5.50
2023-12-09T21:54:16.555Z,5.50
2023-12-09T21:56:43.385Z,5.60
2023-12-09T21:59:10.227Z,5.60
2023-12-09T22:01:38.360Z,5.50
2023-12-09T22:04:06.381Z,5.50
2023-12-09T22:06:33.540Z,5.50
2023-12-09T22:09:00.666Z,5.50
2023-12-09T22:11:27.600Z,5.50
2023-12-09T22:13:54.485Z,5.50
2023-12-09T22:16:21.544Z,5.50
2023-12-09T22:18:50.187Z,5.50
2023-12-09T22:21:17.177Z,5.40
2023-12-09T22:23:44.019Z,5.40
2023-12-09T22:26:10.852Z,5.50
2023-12-09T22:28:40.202Z,5.50
2023-12-09T22:31:09.844Z,5.50
2023-12-09T22:33:41.389Z,5.50
2023-12-09T22:36:10.007Z,5.50
2023-12-09T22:38:37.265Z,5.60
2023-12-09T22:41:04.383Z,5.60
2023-12-09T22:43:31.279Z,5.60
2023-12-09T22:45:58.054Z,5.60
2023-12-09T22:48:25.105Z,5.60
2023-12-09T22:50:54.643Z,5.60
2023-12-09T22:53:21.728Z,5.60
2023-12-09T22:55:48.516Z,5.70
2023-12-09T22:58:15.257Z,5.70
2023-12-09T23:00:43.586Z,5.70
2023-12-09T23:03:10.614Z,5.60
2023-12-09T23:05:38.395Z,5.70
2023-12-09T23:08:05.292Z,5.70
2023-12-09T23:10:32.112Z,5.70
2023-12-09T23:12:59.298Z,5.70
2023-12-09T23:15:26.069Z,5.60
2023-12-09T23:17:54.002Z,5.60
2023-12-09T23:20:20.923Z,5.60
2023-12-09T23:22:47.687Z,5.50
2023-12-09T23:25:14.772Z,5.60
2023-12-09T23:27:41.696Z,5.70
2023-12-09T23:30:09.012Z,5.60
2023-12-09T23:32:35.982Z,5.60
2023-12-09T23:35:02.780Z,5.70
2023-12-09T23:37:29.512Z,5.70
2023-12-09T23:39:56.385Z,5.80
2023-12-09T23:42:23.356Z,5.70
2023-12-09T23:44:50.182Z,5.70
2023-12-09T23:47:17.131Z,5.70
2023-12-09T23:49:43.912Z,5.60
2023-12-09T23:52:11.334Z,5.60
2023-12-09T23:54:38.209Z,5.60
2023-12-09T23:57:05.498Z,5.60
2023-12-09T23:59:32.915Z,5.70
